Time;durP1;ratioP1;P1;durP2;ratioP2;P2;SDS_P1;SDS_P2;PMS_P1;PMS_P2;Temp;Humidity;BMP_temperature;BMP_pressure;BME280_temperature;BME280_humidity;BME280_pressure;Samples;Min_cycle;Max_cycle;Signal;HPM_P1;HPM_P2
2021/12/21 00:04:07;;;;;;;10.00;8.07;;;;;;;;;;10149110;28;20078;-57
2021/12/21 00:09:06;;;;;;;9.98;7.97;;;;;;;;;;10153134;28;20078;-56
2021/12/21 00:14:19;;;;;;;10.57;7.25;;;;;;;;;;10154980;28;20097;-56
2021/12/21 00:24:41;;;;;;;9.45;7.03;;;;;;;;;;10152961;28;20086;-55
2021/12/21 00:29:41;;;;;;;7.35;6.60;;;;;;;;;;10152115;28;20101;-56
2021/12/21 00:34:40;;;;;;;9.00;7.72;;;;;;;;;;10152239;28;20526;-57
2021/12/21 00:39:38;;;;;;;9.40;7.50;;;;;;;;;;10150956;28;20073;-58
2021/12/21 00:44:36;;;;;;;13.30;9.00;;;;;;;;;;10153375;28;20574;-57
2021/12/21 00:49:37;;;;;;;9.55;7.90;;;;;;;;;;10151691;28;20080;-56
2021/12/21 00:54:35;;;;;;;9.10;7.60;;;;;;;;;;10152313;28;20094;-57
2021/12/21 00:59:34;;;;;;;9.95;7.00;;;;;;;;;;10153295;28;20476;-53
2021/12/21 01:04:37;;;;;;;11.13;8.05;;;;;;;;;;10153064;28;20555;-57
2021/12/21 01:10:03;;;;;;;7.88;6.45;;;;;;;;;;10157189;28;20065;-56
2021/12/21 01:15:12;;;;;;;7.88;7.07;;;;;;;;;;10158861;28;20062;-55
2021/12/21 01:20:24;;;;;;;10.73;7.55;;;;;;;;;;10159565;28;20065;-57
2021/12/21 01:25:35;;;;;;;13.70;8.30;;;;;;;;;;10159489;28;20082;-55
2021/12/21 01:30:42;;;;;;;12.02;8.98;;;;;;;;;;10159522;28;20073;-54
2021/12/21 01:35:45;;;;;;;11.05;8.23;;;;;;;;;;10154622;28;20066;-53
2021/12/21 01:40:51;;;;;;;8.00;6.95;;;;;;;;;;10158077;28;20081;-55
2021/12/21 01:51:05;;;;;;;8.48;7.32;;;;;;;;;;10159521;28;20073;-56
2021/12/21 01:56:06;;;;;;;11.07;7.57;;;;;;;;;;10158699;28;20085;-57
2021/12/21 02:01:04;;;;;;;9.55;6.80;;;;;;;;;;10159119;28;20444;-56
2021/12/21 02:06:03;;;;;;;11.20;7.20;;;;;;;;;;10157897;28;20069;-56
2021/12/21 02:11:04;;;;;;;23.00;10.40;;;;;;;;;;10158281;28;20077;-57
2021/12/21 02:16:04;;;;;;;10.68;8.65;;;;;;;;;;10158218;28;20436;-56
2021/12/21 02:21:17;;;;;;;11.18;7.55;;;;;;;;;;10155032;28;20043;-56
2021/12/21 02:26:34;;;;;;;9.35;7.45;;;;;;;;;;10157225;28;20066;-56
2021/12/21 02:31:32;;;;;;;10.00;8.20;;;;;;;;;;10156733;28;20460;-56
2021/12/21 02:36:32;;;;;;;9.77;8.20;;;;;;;;;;10157366;28;20074;-57
2021/12/21 02:41:30;;;;;;;9.35;6.88;;;;;;;;;;10156521;28;20066;-55
2021/12/21 02:46:28;;;;;;;7.88;6.57;;;;;;;;;;10156321;28;20549;-58
2021/12/21 02:51:27;;;;;;;12.52;7.03;;;;;;;;;;10157025;28;20109;-53
2021/12/21 02:56:26;;;;;;;8.10;6.03;;;;;;;;;;10155982;28;20500;-56
2021/12/21 03:01:25;;;;;;;11.77;8.45;;;;;;;;;;10154274;28;20534;-60
2021/12/21 03:06:59;;;;;;;7.65;6.93;;;;;;;;;;10158204;28;20039;-57
2021/12/21 03:12:09;;;;;;;8.05;6.32;;;;;;;;;;10156926;28;20070;-57
2021/12/21 03:17:07;;;;;;;19.30;12.07;;;;;;;;;;10161849;28;20089;-58
2021/12/21 03:22:06;;;;;;;11.40;8.10;;;;;;;;;;10154050;28;20074;-56
2021/12/21 03:27:06;;;;;;;15.63;10.55;;;;;;;;;;10155851;28;20077;-56
2021/12/21 03:32:05;;;;;;;22.80;12.77;;;;;;;;;;10154993;28;20086;-57
2021/12/21 03:37:05;;;;;;;16.08;11.27;;;;;;;;;;10155251;28;20131;-57
2021/12/21 03:42:03;;;;;;;27.42;15.50;;;;;;;;;;10154435;28;20053;-56
2021/12/21 03:47:04;;;;;;;24.98;14.50;;;;;;;;;;10154183;28;20081;-58
2021/12/21 03:52:04;;;;;;;9.43;7.50;;;;;;;;;;10156979;28;20081;-56
2021/12/21 03:57:03;;;;;;;14.00;9.20;;;;;;;;;;10161188;28;20546;-55
2021/12/21 04:02:01;;;;;;;13.27;9.70;;;;;;;;;;10153259;28;20081;-57
2021/12/21 04:07:00;;;;;;;15.55;10.90;;;;;;;;;;10155686;28;20074;-56
2021/12/21 04:12:00;;;;;;;12.95;10.10;;;;;;;;;;10155936;28;20158;-56
2021/12/21 04:16:58;;;;;;;19.25;11.48;;;;;;;;;;10152707;28;20076;-54
2021/12/21 04:21:57;;;;;;;19.15;10.70;;;;;;;;;;10152565;28;20078;-55
2021/12/21 04:26:56;;;;;;;29.83;15.60;;;;;;;;;;10152155;28;20477;-56
2021/12/21 04:31:55;;;;;;;19.50;11.07;;;;;;;;;;10151307;28;20086;-56
2021/12/21 04:36:53;;;;;;;13.95;10.05;;;;;;;;;;10151798;28;20149;-54
2021/12/21 04:41:52;;;;;;;20.70;13.80;;;;;;;;;;10152443;28;20503;-56
2021/12/21 04:47:02;;;;;;;14.10;10.35;;;;;;;;;;10153872;28;20101;-57
2021/12/21 04:52:01;;;;;;;16.60;9.40;;;;;;;;;;10150967;28;20077;-57
2021/12/21 04:56:59;;;;;;;37.65;23.42;;;;;;;;;;10151130;28;20081;-56
2021/12/21 05:01:57;;;;;;;17.15;10.80;;;;;;;;;;10152111;28;20078;-55
2021/12/21 05:06:57;;;;;;;24.90;15.77;;;;;;;;;;10153613;28;20070;-58
2021/12/21 05:12:01;;;;;;;17.88;12.15;;;;;;;;;;10151047;28;20150;-57
2021/12/21 05:16:59;;;;;;;41.28;23.75;;;;;;;;;;10146658;28;20059;-56
2021/12/21 05:21:59;;;;;;;33.05;18.38;;;;;;;;;;10149182;28;20082;-56
2021/12/21 05:26:57;;;;;;;28.83;16.25;;;;;;;;;;10146071;28;20085;-56
2021/12/21 05:31:57;;;;;;;28.20;16.38;;;;;;;;;;10151431;28;20526;-57
2021/12/21 05:36:56;;;;;;;29.33;15.68;;;;;;;;;;10151617;28;20069;-56
2021/12/21 05:41:56;;;;;;;26.50;16.27;;;;;;;;;;10150262;28;20085;-56
2021/12/21 05:46:55;;;;;;;31.35;19.02;;;;;;;;;;10151869;28;20066;-57
2021/12/21 05:51:54;;;;;;;22.75;14.15;;;;;;;;;;10150903;28;20073;-57
2021/12/21 05:56:52;;;;;;;22.13;15.30;;;;;;;;;;10157445;28;20091;-57
2021/12/21 06:01:51;;;;;;;17.20;12.07;;;;;;;;;;10153602;28;20058;-56
2021/12/21 06:06:50;;;;;;;38.63;25.48;;;;;;;;;;10152580;28;20252;-54
2021/12/21 06:11:57;;;;;;;18.25;13.05;;;;;;;;;;10158326;28;20093;-54
2021/12/21 06:27:25;;;;;;;11.45;10.07;;;;;;;;;;10146621;28;20520;-55
2021/12/21 06:32:25;;;;;;;16.38;11.02;;;;;;;;;;10151983;28;20081;-57
2021/12/21 06:37:23;;;;;;;14.48;11.40;;;;;;;;;;10159884;28;20074;-55
2021/12/21 06:42:22;;;;;;;22.83;16.88;;;;;;;;;;10177626;28;20077;-54
2021/12/21 06:52:43;;;;;;;17.52;12.75;;;;;;;;;;10147488;28;20077;-53
2021/12/21 06:57:43;;;;;;;20.25;13.93;;;;;;;;;;10154035;28;20088;-55
2021/12/21 07:02:41;;;;;;;16.77;12.45;;;;;;;;;;10150718;28;20089;-55
2021/12/21 07:07:40;;;;;;;21.02;14.90;;;;;;;;;;10151953;28;20074;-53
2021/12/21 07:18:10;;;;;;;14.35;11.32;;;;;;;;;;10149946;28;20550;-55
2021/12/21 07:23:09;;;;;;;16.95;12.13;;;;;;;;;;10148296;28;20066;-57
2021/12/21 07:28:08;;;;;;;20.80;16.95;;;;;;;;;;10156937;28;20069;-52
2021/12/21 07:33:06;;;;;;;17.63;14.45;;;;;;;;;;10154125;28;20073;-53
2021/12/21 07:38:05;;;;;;;15.15;12.20;;;;;;;;;;10157912;28;20081;-55
2021/12/21 07:43:03;;;;;;;18.23;13.05;;;;;;;;;;10156461;28;20147;-57
2021/12/21 07:48:03;;;;;;;27.88;18.67;;;;;;;;;;10153933;28;20499;-56
2021/12/21 07:53:02;;;;;;;14.48;11.15;;;;;;;;;;10154273;28;20062;-55
2021/12/21 07:58:00;;;;;;;20.25;13.65;;;;;;;;;;10161352;28;20527;-56
2021/12/21 08:03:04;;;;;;;17.30;13.30;;;;;;;;;;10154631;28;20542;-56
2021/12/21 08:08:11;;;;;;;13.88;12.15;;;;;;;;;;10154471;28;20092;-57
2021/12/21 08:13:09;;;;;;;16.38;14.18;;;;;;;;;;10153909;28;20075;-54
2021/12/21 08:18:09;;;;;;;12.93;10.98;;;;;;;;;;10152246;28;20085;-57
2021/12/21 08:23:07;;;;;;;20.15;12.10;;;;;;;;;;10153468;28;20085;-57
2021/12/21 08:28:07;;;;;;;11.65;10.48;;;;;;;;;;10153755;28;20073;-57
2021/12/21 08:33:05;;;;;;;11.63;10.23;;;;;;;;;;10153128;28;20074;-51
2021/12/21 08:38:05;;;;;;;15.07;11.45;;;;;;;;;;10154007;28;20081;-57
2021/12/21 08:43:04;;;;;;;21.83;15.43;;;;;;;;;;10153293;28;20511;-53
2021/12/21 08:48:04;;;;;;;16.75;12.90;;;;;;;;;;10152671;28;20073;-53
2021/12/21 08:53:04;;;;;;;11.20;9.57;;;;;;;;;;10153299;28;20050;-52
2021/12/21 08:58:03;;;;;;;15.18;11.50;;;;;;;;;;10152748;28;20086;-55
2021/12/21 09:03:01;;;;;;;13.45;10.30;;;;;;;;;;10152048;28;20073;-56
2021/12/21 09:08:01;;;;;;;15.18;10.95;;;;;;;;;;10147303;28;20074;-54
2021/12/21 09:13:01;;;;;;;15.77;12.02;;;;;;;;;;10152980;28;20073;-53
2021/12/21 09:18:00;;;;;;;21.95;16.58;;;;;;;;;;10152104;28;20076;-57
2021/12/21 09:23:00;;;;;;;15.75;13.05;;;;;;;;;;10148245;28;20097;-56
2021/12/21 09:27:59;;;;;;;19.25;15.10;;;;;;;;;;10152346;28;20074;-56
2021/12/21 09:32:59;;;;;;;38.38;25.90;;;;;;;;;;10161540;28;20052;-55
2021/12/21 09:37:58;;;;;;;23.05;16.23;;;;;;;;;;10159689;28;20081;-56
2021/12/21 09:42:57;;;;;;;18.73;13.27;;;;;;;;;;10158510;28;20066;-55
2021/12/21 09:47:55;;;;;;;22.42;16.35;;;;;;;;;;10159561;28;20059;-55
2021/12/21 09:52:55;;;;;;;15.43;11.00;;;;;;;;;;10159323;28;20069;-56
2021/12/21 09:57:54;;;;;;;22.80;12.65;;;;;;;;;;10158660;28;20077;-55
2021/12/21 10:02:52;;;;;;;18.75;11.75;;;;;;;;;;10158992;28;20150;-54
2021/12/21 10:08:00;;;;;;;17.88;12.50;;;;;;;;;;10158590;28;20074;-55
2021/12/21 10:13:06;;;;;;;23.30;13.13;;;;;;;;;;10158660;28;20456;-51
2021/12/21 10:18:05;;;;;;;22.60;14.40;;;;;;;;;;10158662;28;20077;-54
2021/12/21 10:23:10;;;;;;;17.65;13.68;;;;;;;;;;10156853;28;20138;-56
2021/12/21 10:28:09;;;;;;;13.17;8.93;;;;;;;;;;10156946;28;20073;-56
2021/12/21 10:33:10;;;;;;;22.65;15.77;;;;;;;;;;10156805;28;20073;-54
2021/12/21 10:38:10;;;;;;;21.60;15.88;;;;;;;;;;10156466;28;20144;-54
2021/12/21 10:43:10;;;;;;;21.95;13.93;;;;;;;;;;10156863;28;20078;-56
2021/12/21 10:48:11;;;;;;;61.25;29.73;;;;;;;;;;10163545;28;20500;-54
2021/12/21 10:53:17;;;;;;;18.40;13.27;;;;;;;;;;10156076;28;20109;-56
2021/12/21 10:58:17;;;;;;;23.98;18.05;;;;;;;;;;10155408;28;20077;-57
2021/12/21 11:03:18;;;;;;;24.92;15.65;;;;;;;;;;10156797;28;20069;-54
2021/12/21 11:08:27;;;;;;;17.10;13.23;;;;;;;;;;10155934;28;20118;-57
2021/12/21 11:13:26;;;;;;;32.97;20.52;;;;;;;;;;10155948;28;20518;-56
2021/12/21 11:18:25;;;;;;;45.55;29.35;;;;;;;;;;10155355;28;20090;-53
2021/12/21 11:23:24;;;;;;;42.33;25.92;;;;;;;;;;10155964;28;20080;-56
2021/12/21 11:28:26;;;;;;;46.30;24.58;;;;;;;;;;10163121;28;20587;-56
2021/12/21 11:33:26;;;;;;;16.13;13.32;;;;;;;;;;10162061;28;20097;-57
2021/12/21 11:38:24;;;;;;;33.50;18.25;;;;;;;;;;10154369;28;20113;-56
2021/12/21 11:43:28;;;;;;;51.00;26.92;;;;;;;;;;10154045;28;20089;-56
2021/12/21 11:48:37;;;;;;;28.07;15.10;;;;;;;;;;10153764;28;20061;-57
2021/12/21 11:53:36;;;;;;;22.27;12.98;;;;;;;;;;10152071;28;20888;-56
2021/12/21 11:58:39;;;;;;;17.85;11.10;;;;;;;;;;10158462;28;20066;-57
2021/12/21 12:03:39;;;;;;;31.48;19.80;;;;;;;;;;10151544;28;20146;-56
2021/12/21 12:08:41;;;;;;;17.02;12.02;;;;;;;;;;10151350;28;20077;-55
2021/12/21 12:13:43;;;;;;;48.85;22.05;;;;;;;;;;10152722;28;20100;-57
2021/12/21 12:18:42;;;;;;;38.03;20.45;;;;;;;;;;10153071;28;20372;-57
2021/12/21 12:23:44;;;;;;;28.05;17.60;;;;;;;;;;10152479;28;20066;-57
2021/12/21 12:28:44;;;;;;;24.30;15.93;;;;;;;;;;10153873;28;20086;-57
2021/12/21 12:33:44;;;;;;;26.92;14.77;;;;;;;;;;10159178;28;20066;-54
2021/12/21 12:38:44;;;;;;;17.70;14.50;;;;;;;;;;10152334;28;20536;-57
2021/12/21 12:43:44;;;;;;;22.55;15.48;;;;;;;;;;10151606;28;20518;-56
2021/12/21 12:48:46;;;;;;;23.58;13.93;;;;;;;;;;10152187;28;20868;-57
2021/12/21 12:53:47;;;;;;;14.80;12.10;;;;;;;;;;10151560;28;20082;-56
2021/12/21 12:58:52;;;;;;;19.85;16.25;;;;;;;;;;10153650;28;20077;-55
2021/12/21 13:03:50;;;;;;;16.00;11.13;;;;;;;;;;10152247;28;20074;-57
2021/12/21 13:08:49;;;;;;;27.52;18.52;;;;;;;;;;10152402;28;20337;-57
2021/12/21 13:13:49;;;;;;;86.85;46.05;;;;;;;;;;10159103;28;20482;-57
2021/12/21 13:18:49;;;;;;;80.15;40.65;;;;;;;;;;10151154;28;20062;-55
2021/12/21 13:23:49;;;;;;;27.75;21.02;;;;;;;;;;10150903;28;20077;-55
2021/12/21 13:28:49;;;;;;;45.08;32.00;;;;;;;;;;10151209;28;20080;-57
2021/12/21 13:33:51;;;;;;;30.92;22.77;;;;;;;;;;10151091;28;20073;-56
2021/12/21 13:38:50;;;;;;;27.67;18.83;;;;;;;;;;10151246;28;20073;-56
2021/12/21 13:43:56;;;;;;;29.48;21.38;;;;;;;;;;10151550;28;20100;-58
2021/12/21 13:48:56;;;;;;;25.90;16.98;;;;;;;;;;10150142;28;20069;-57
2021/12/21 13:53:56;;;;;;;25.15;18.02;;;;;;;;;;10150605;28;20078;-56
2021/12/21 13:58:55;;;;;;;30.38;20.80;;;;;;;;;;10152234;28;20066;-55
2021/12/21 14:03:58;;;;;;;22.75;15.98;;;;;;;;;;10149347;28;20082;-57
2021/12/21 14:08:59;;;;;;;30.13;20.02;;;;;;;;;;10150022;28;20077;-55
2021/12/21 14:13:58;;;;;;;36.58;20.70;;;;;;;;;;10151686;28;20078;-57
2021/12/21 14:18:58;;;;;;;62.63;39.15;;;;;;;;;;10159098;28;20069;-58
2021/12/21 14:23:57;;;;;;;34.70;26.83;;;;;;;;;;10163083;28;20494;-54
2021/12/21 14:28:57;;;;;;;50.85;34.53;;;;;;;;;;10156389;28;20073;-56
2021/12/21 14:33:57;;;;;;;25.52;21.27;;;;;;;;;;10156119;28;20093;-57
2021/12/21 14:38:57;;;;;;;23.02;17.77;;;;;;;;;;10157019;28;20074;-56
2021/12/21 14:44:04;;;;;;;87.47;51.55;;;;;;;;;;10157649;28;20460;-57
2021/12/21 14:49:05;;;;;;;63.03;26.35;;;;;;;;;;10157862;28;20070;-57
2021/12/21 14:54:07;;;;;;;59.50;31.77;;;;;;;;;;10156611;28;20093;-56
2021/12/21 14:59:08;;;;;;;92.43;48.60;;;;;;;;;;10155572;28;20066;-57
2021/12/21 15:04:13;;;;;;;34.47;22.10;;;;;;;;;;10155754;28;20078;-55
2021/12/21 15:09:11;;;;;;;;;;;;;;;;;;10153982;28;20072;-55
2021/12/21 15:14:11;;;;;;;45.58;31.75;;;;;;;;;;10156110;28;20415;-53
2021/12/21 15:19:09;;;;;;;72.80;44.28;;;;;;;;;;10151231;28;20066;-56
2021/12/21 15:24:08;;;;;;;68.35;42.80;;;;;;;;;;10150690;28;20081;-56
2021/12/21 15:29:07;;;;;;;89.78;54.55;;;;;;;;;;10155024;28;20081;-55
2021/12/21 15:34:06;;;;;;;142.50;87.88;;;;;;;;;;10150631;28;20073;-57
2021/12/21 15:39:05;;;;;;;63.75;38.78;;;;;;;;;;10155090;28;20149;-55
2021/12/21 15:44:05;;;;;;;61.55;36.13;;;;;;;;;;10154036;28;20077;-55
2021/12/21 15:49:03;;;;;;;70.78;41.10;;;;;;;;;;10155366;28;20073;-58
2021/12/21 15:54:04;;;;;;;63.90;38.90;;;;;;;;;;10161834;28;20179;-56
2021/12/21 15:59:02;;;;;;;55.58;32.45;;;;;;;;;;10162778;28;20104;-53
2021/12/21 16:04:03;;;;;;;45.78;30.50;;;;;;;;;;10160073;28;20065;-54
2021/12/21 16:09:01;;;;;;;46.63;32.58;;;;;;;;;;10154587;28;20491;-54
2021/12/21 16:14:02;;;;;;;57.78;39.53;;;;;;;;;;10153661;28;20076;-56
2021/12/21 16:19:01;;;;;;;49.38;32.00;;;;;;;;;;10153221;28;20074;-56
2021/12/21 16:24:00;;;;;;;33.50;25.48;;;;;;;;;;10152770;28;20475;-52
2021/12/21 16:28:58;;;;;;;34.70;23.00;;;;;;;;;;10153519;28;20069;-53
2021/12/21 16:33:58;;;;;;;30.27;19.83;;;;;;;;;;10161205;28;20077;-56
2021/12/21 16:38:57;;;;;;;42.20;28.50;;;;;;;;;;10153430;28;20070;-53
2021/12/21 16:44:00;;;;;;;44.05;30.40;;;;;;;;;;10151698;28;20423;-55
2021/12/21 16:49:00;;;;;;;35.47;25.13;;;;;;;;;;10152513;28;20534;-57
2021/12/21 16:53:59;;;;;;;31.02;23.92;;;;;;;;;;10151795;28;20085;-54
2021/12/21 16:58:58;;;;;;;31.05;21.42;;;;;;;;;;10151972;28;20058;-56
2021/12/21 17:03:56;;;;;;;28.40;18.40;;;;;;;;;;10151893;28;20122;-55
2021/12/21 17:08:57;;;;;;;56.45;25.73;;;;;;;;;;10150461;28;20065;-54
2021/12/21 17:13:56;;;;;;;71.35;40.05;;;;;;;;;;10150270;28;20077;-54
2021/12/21 17:18:55;;;;;;;35.20;26.02;;;;;;;;;;10150280;28;20074;-54
2021/12/21 17:23:53;;;;;;;35.90;25.52;;;;;;;;;;10151737;28;20062;-55
2021/12/21 17:28:58;;;;;;;23.67;17.33;;;;;;;;;;10158022;28;20081;-55
2021/12/21 17:33:58;;;;;;;26.52;16.30;;;;;;;;;;10150438;28;20074;-55
2021/12/21 17:38:56;;;;;;;18.73;13.70;;;;;;;;;;10151784;28;20097;-56
2021/12/21 17:43:55;;;;;;;14.40;9.80;;;;;;;;;;10151293;28;20069;-55
2021/12/21 17:48:55;;;;;;;86.68;53.03;;;;;;;;;;10153217;28;20070;-54
2021/12/21 17:53:54;;;;;;;84.60;54.08;;;;;;;;;;10156305;28;20078;-54
2021/12/21 17:58:56;;;;;;;28.20;18.77;;;;;;;;;;10158082;28;20334;-55
2021/12/21 18:03:56;;;;;;;15.68;12.27;;;;;;;;;;10154850;28;20089;-54
2021/12/21 18:08:54;;;;;;;14.95;11.25;;;;;;;;;;10149780;28;20070;-56
2021/12/21 18:13:52;;;;;;;15.30;10.20;;;;;;;;;;10149464;28;20486;-56
2021/12/21 18:18:51;;;;;;;18.50;11.95;;;;;;;;;;10152511;28;20070;-55
2021/12/21 18:23:50;;;;;;;20.58;16.92;;;;;;;;;;10152315;28;20089;-56
2021/12/21 18:28:49;;;;;;;13.27;9.57;;;;;;;;;;10153420;28;20104;-57
2021/12/21 18:33:47;;;;;;;72.93;37.55;;;;;;;;;;10155321;28;20074;-52
2021/12/21 18:38:47;;;;;;;97.68;50.17;;;;;;;;;;10154498;28;20073;-57
2021/12/21 18:43:47;;;;;;;22.58;16.83;;;;;;;;;;10149226;28;20074;-56
2021/12/21 18:48:49;;;;;;;20.30;14.35;;;;;;;;;;10153140;28;20499;-54
2021/12/21 18:53:47;;;;;;;24.08;17.23;;;;;;;;;;10153056;28;20554;-57
2021/12/21 18:58:51;;;;;;;31.27;18.48;;;;;;;;;;10147347;28;20073;-55
2021/12/21 19:03:49;;;;;;;17.40;12.43;;;;;;;;;;10154974;28;20069;-54
2021/12/21 19:08:47;;;;;;;122.60;59.63;;;;;;;;;;10153292;28;20066;-57
2021/12/21 19:13:47;;;;;;;19.33;15.57;;;;;;;;;;10150425;28;20073;-56
2021/12/21 19:18:45;;;;;;;22.35;14.52;;;;;;;;;;10152367;28;20092;-57
2021/12/21 19:23:47;;;;;;;38.40;22.08;;;;;;;;;;10149943;28;20086;-56
2021/12/21 19:28:49;;;;;;;20.55;16.48;;;;;;;;;;10153061;28;20101;-56
2021/12/21 19:33:47;;;;;;;17.30;12.07;;;;;;;;;;10156154;28;20538;-55
2021/12/21 19:38:49;;;;;;;27.17;17.70;;;;;;;;;;10157753;28;20445;-55
2021/12/21 19:43:49;;;;;;;24.77;17.15;;;;;;;;;;10153898;28;20058;-57
2021/12/21 19:48:47;;;;;;;26.23;15.48;;;;;;;;;;10151096;28;20077;-56
2021/12/21 19:53:45;;;;;;;31.92;21.95;;;;;;;;;;10149743;28;20077;-56
2021/12/21 19:58:44;;;;;;;22.73;17.58;;;;;;;;;;10153003;28;20080;-56
2021/12/21 20:03:43;;;;;;;26.48;17.60;;;;;;;;;;10152133;28;20081;-57
2021/12/21 20:08:42;;;;;;;44.70;30.50;;;;;;;;;;10149469;28;20100;-56
2021/12/21 20:13:40;;;;;;;45.80;31.98;;;;;;;;;;10152441;28;20080;-56
2021/12/21 20:18:38;;;;;;;134.38;71.85;;;;;;;;;;10153293;28;20074;-55
2021/12/21 20:23:38;;;;;;;157.27;83.68;;;;;;;;;;10153925;28;20072;-55
2021/12/21 20:28:37;;;;;;;193.32;98.68;;;;;;;;;;10149100;28;20082;-55
2021/12/21 20:33:35;;;;;;;245.95;115.13;;;;;;;;;;10157118;28;20081;-52
2021/12/21 20:38:34;;;;;;;283.98;124.03;;;;;;;;;;10150370;28;20074;-55
2021/12/21 20:43:33;;;;;;;69.50;38.20;;;;;;;;;;10149967;28;20518;-56
2021/12/21 20:48:32;;;;;;;80.85;45.10;;;;;;;;;;10151055;28;20081;-57
2021/12/21 20:53:30;;;;;;;131.20;67.65;;;;;;;;;;10150602;28;20074;-52
2021/12/21 20:58:29;;;;;;;91.28;50.95;;;;;;;;;;10155393;28;20110;-51
2021/12/21 21:03:30;;;;;;;97.85;57.35;;;;;;;;;;10147598;28;20076;-55
2021/12/21 21:08:29;;;;;;;99.78;59.75;;;;;;;;;;10150546;28;20069;-55
2021/12/21 21:13:28;;;;;;;65.72;39.65;;;;;;;;;;10151298;28;21358;-56
2021/12/21 21:18:26;;;;;;;64.45;41.50;;;;;;;;;;10151323;28;20466;-57
2021/12/21 21:23:26;;;;;;;29.65;21.15;;;;;;;;;;10154129;28;20078;-57
2021/12/21 21:28:24;;;;;;;35.83;21.70;;;;;;;;;;10159490;28;20082;-54
2021/12/21 21:33:23;;;;;;;31.65;22.05;;;;;;;;;;10159464;28;20485;-53
2021/12/21 21:38:21;;;;;;;65.25;48.85;;;;;;;;;;10157933;28;20153;-56
2021/12/21 21:43:21;;;;;;;87.53;61.22;;;;;;;;;;10152690;28;20073;-54
2021/12/21 21:48:25;;;;;;;54.42;33.38;;;;;;;;;;10158925;28;20085;-56
2021/12/21 21:53:42;;;;;;;32.70;22.08;;;;;;;;;;10151670;28;20080;-57
2021/12/21 21:58:43;;;;;;;40.35;28.40;;;;;;;;;;10154973;28;20080;-56
2021/12/21 22:03:47;;;;;;;17.90;14.02;;;;;;;;;;10154356;28;20074;-56
2021/12/21 22:08:45;;;;;;;35.85;23.67;;;;;;;;;;10156362;28;20073;-56
2021/12/21 22:13:46;;;;;;;34.30;23.13;;;;;;;;;;10163540;28;20114;-56
2021/12/21 22:18:44;;;;;;;34.25;24.63;;;;;;;;;;10157884;28;20419;-54
2021/12/21 22:23:43;;;;;;;31.30;22.35;;;;;;;;;;10157567;28;20505;-56
2021/12/21 22:28:42;;;;;;;31.55;18.75;;;;;;;;;;10158969;28;20084;-54
2021/12/21 22:33:42;;;;;;;30.23;19.85;;;;;;;;;;10157955;28;20073;-57
2021/12/21 22:38:42;;;;;;;28.63;19.33;;;;;;;;;;10157164;28;20503;-55
2021/12/21 22:43:42;;;;;;;36.75;23.20;;;;;;;;;;10156717;28;20074;-57
2021/12/21 22:48:42;;;;;;;34.60;20.67;;;;;;;;;;10158993;28;20081;-55
2021/12/21 22:53:40;;;;;;;28.85;19.75;;;;;;;;;;10156177;28;20093;-54
2021/12/21 22:58:39;;;;;;;78.32;33.85;;;;;;;;;;10157535;28;20101;-57
2021/12/21 23:03:37;;;;;;;153.65;62.25;;;;;;;;;;10162645;28;20069;-54
2021/12/21 23:08:38;;;;;;;146.85;72.57;;;;;;;;;;10157933;28;20061;-57
2021/12/21 23:13:36;;;;;;;118.03;61.88;;;;;;;;;;10154168;28;20526;-56
2021/12/21 23:18:35;;;;;;;70.47;37.60;;;;;;;;;;10155818;28;20069;-56
2021/12/21 23:23:34;;;;;;;27.42;18.50;;;;;;;;;;10155264;28;20066;-56
2021/12/21 23:28:33;;;;;;;17.65;13.82;;;;;;;;;;10156340;28;20449;-56
2021/12/21 23:33:33;;;;;;;12.80;9.88;;;;;;;;;;10156991;28;20074;-56
2021/12/21 23:38:32;;;;;;;30.08;20.58;;;;;;;;;;10149073;28;20065;-54
2021/12/21 23:43:30;;;;;;;20.30;14.05;;;;;;;;;;10154209;28;20473;-52
2021/12/21 23:48:29;;;;;;;49.83;27.33;;;;;;;;;;10154894;28;20096;-56
2021/12/21 23:53:28;;;;;;;28.40;20.90;;;;;;;;;;10155039;28;20345;-57
2021/12/21 23:58:26;;;;;;;49.17;28.42;;;;;;;;;;10153893;28;20101;-57
